Newcastle, Wyoming
Current Conditions -  °F | °C
As of 5:15 AM on Monday 24 Nov 2014 (Local Time) from KECS Reporting Station
Light Snow Light Snow  
Wind Chill: -10°   Ceiling: 800
Heat Index: -4°   Visibility: 2.5mi
Dew Point: -6°   Wind: 12mph
Humidity: 86%   Direction: 320°NW
Pressure: 29.79"   Gusts: NA
Location:  43.85°N, 104.2°W
Report Text: KECS 241215Z AUTO 32010KT 2 1/2SM -SN OVC008 M04/M06 A2979 RMK AO2
Loading
Personal Weather Stations






























Interactive Weather Map New forecast layout! Learn more

10-Day Weather Forecast

Advertisements
Track Severe Weather on mobile